Time;durP1;ratioP1;P1;durP2;ratioP2;P2;SDS_P1;SDS_P2;PMS_P1;PMS_P2;Temp;Humidity;BMP_temperature;BMP_pressure;BME280_temperature;BME280_humidity;BME280_pressure;Samples;Min_cycle;Max_cycle;Signal;HPM_P1;HPM_P2
2024/04/25 00:01:20;;;;;;;2.13;1.20;;;7.30;77.10;;;;;;5424872;26;20011;-62
2024/04/25 00:03:52;;;;;;;4.72;1.00;;;7.30;77.10;;;;;;5429125;26;20019;-62
2024/04/25 00:06:21;;;;;;;2.95;1.23;;;7.20;77.30;;;;;;5405275;26;20015;-62
2024/04/25 00:08:50;;;;;;;4.30;1.20;;;7.30;77.30;;;;;;5392165;26;20015;-62
2024/04/25 00:11:21;;;;;;;2.85;1.20;;;7.30;77.30;;;;;;5388852;26;20081;-62
2024/04/25 00:13:50;;;;;;;3.85;1.40;;;7.30;77.30;;;;;;5392596;26;20043;-61
2024/04/25 00:16:20;;;;;;;4.00;1.53;;;7.30;77.30;;;;;;5392361;26;20474;-62
2024/04/25 00:18:51;;;;;;;3.58;1.10;;;7.30;77.40;;;;;;5382692;26;20008;-70
2024/04/25 00:21:20;;;;;;;3.88;1.00;;;7.20;77.70;;;;;;5389963;26;20425;-71
2024/04/25 00:23:49;;;;;;;3.25;1.23;;;7.20;77.70;;;;;;5394688;26;20043;-70
2024/04/25 00:26:21;;;;;;;3.85;1.20;;;7.20;77.80;;;;;;5393272;26;20480;-71
2024/04/25 00:28:49;;;;;;;3.53;1.40;;;7.20;77.70;;;;;;5389605;26;20054;-71
2024/04/25 00:31:20;;;;;;;2.60;1.13;;;7.30;77.70;;;;;;5388490;26;20506;-71
2024/04/25 00:33:51;;;;;;;4.28;1.40;;;7.20;78.00;;;;;;5390113;26;20019;-71
2024/04/25 00:36:21;;;;;;;4.65;1.25;;;7.20;78.10;;;;;;5394216;26;20003;-69
2024/04/25 00:38:50;;;;;;;2.70;1.15;;;7.20;78.20;;;;;;5391235;26;20014;-71
2024/04/25 00:41:19;;;;;;;5.80;1.58;;;7.20;78.20;;;;;;5386413;26;20016;-71
2024/04/25 00:43:51;;;;;;;3.38;1.45;;;7.20;78.40;;;;;;5392517;26;20074;-71
2024/04/25 00:46:20;;;;;;;5.05;1.58;;;7.20;78.50;;;;;;5385592;26;20004;-69
2024/04/25 00:48:53;;;;;;;2.65;1.17;;;7.20;78.80;;;;;;5393547;26;20000;-70
2024/04/25 00:51:23;;;;;;;3.65;1.40;;;7.10;79.20;;;;;;5394590;26;20677;-71
2024/04/25 00:53:52;;;;;;;3.92;1.27;;;7.10;79.30;;;;;;5392129;26;20092;-71
2024/04/25 00:56:23;;;;;;;3.97;1.70;;;7.00;79.40;;;;;;5395014;26;20008;-71
2024/04/25 00:58:52;;;;;;;;;;;7.00;79.50;;;;;;5388030;26;20004;-71
2024/04/25 01:01:23;;;;;;;3.55;1.30;;;6.90;79.60;;;;;;5392052;26;20424;-71
2024/04/25 01:03:59;;;;;;;4.80;1.35;;;6.80;79.60;;;;;;5388977;26;20450;-69
2024/04/25 01:06:31;;;;;;;3.00;1.10;;;6.70;79.50;;;;;;5390041;26;20017;-70
2024/04/25 01:09:00;;;;;;;4.53;1.45;;;6.70;79.50;;;;;;5388103;26;20008;-71
2024/04/25 01:11:32;;;;;;;4.68;1.40;;;6.70;79.50;;;;;;5390313;26;20056;-70
2024/04/25 01:14:02;;;;;;;3.20;1.33;;;6.60;79.50;;;;;;5391387;26;20004;-69
2024/04/25 01:16:31;;;;;;;2.35;1.27;;;6.60;79.50;;;;;;5393561;26;20040;-72
2024/04/25 01:19:02;;;;;;;2.17;1.05;;;6.60;79.40;;;;;;5392650;26;20007;-71
2024/04/25 01:21:31;;;;;;;3.55;1.20;;;6.60;79.50;;;;;;5384833;26;20352;-71
2024/04/25 01:24:04;;;;;;;3.13;1.10;;;6.60;79.50;;;;;;5393793;26;20004;-71
2024/04/25 01:26:36;;;;;;;3.70;1.15;;;6.60;79.50;;;;;;5389427;26;20004;-71
2024/04/25 01:29:13;;;;;;;3.38;1.67;;;6.60;79.60;;;;;;5387035;26;20016;-61
2024/04/25 01:31:44;;;;;;;3.75;1.67;;;6.60;79.90;;;;;;5387386;26;20047;-62
2024/04/25 01:34:14;;;;;;;4.65;1.60;;;6.60;79.80;;;;;;5389611;26;20003;-62
2024/04/25 01:36:44;;;;;;;2.95;1.33;;;6.50;79.90;;;;;;5386480;26;20494;-62
2024/04/25 01:39:13;;;;;;;3.03;1.42;;;6.50;80.10;;;;;;5389973;26;20050;-61
2024/04/25 01:41:45;;;;;;;4.78;1.38;;;6.50;80.20;;;;;;5392679;26;20482;-61
2024/04/25 01:44:14;;;;;;;4.55;1.80;;;6.50;80.20;;;;;;5382708;26;20442;-61
2024/04/25 01:46:44;;;;;;;3.22;1.38;;;6.50;80.40;;;;;;5383641;26;20036;-61
2024/04/25 01:49:13;;;;;;;;;;;6.40;80.40;;;;;;5382386;26;20000;-60
2024/04/25 01:51:42;;;;;;;3.03;1.33;;;6.40;80.50;;;;;;5391080;26;19933;-61
2024/04/25 01:54:11;;;;;;;3.92;1.70;;;6.40;80.50;;;;;;5384806;26;20001;-61
2024/04/25 01:56:40;;;;;;;5.22;1.70;;;6.40;80.60;;;;;;5382314;26;20345;-62
2024/04/25 01:59:11;;;;;;;3.47;1.45;;;6.40;80.80;;;;;;5387411;26;20004;-61
2024/04/25 02:01:40;;;;;;;5.90;1.52;;;6.40;80.80;;;;;;5391879;26;20008;-62
2024/04/25 02:04:09;;;;;;;3.38;1.50;;;6.40;80.90;;;;;;5391686;26;20023;-61
2024/04/25 02:06:38;;;;;;;4.97;1.80;;;6.30;80.90;;;;;;5392243;26;20396;-60
2024/04/25 02:09:07;;;;;;;5.40;1.70;;;6.30;81.00;;;;;;5389330;26;20082;-61
2024/04/25 02:11:36;;;;;;;2.72;1.50;;;6.30;81.10;;;;;;5388762;26;20008;-62
2024/04/25 02:14:06;;;;;;;3.83;1.52;;;6.30;81.00;;;;;;5390771;26;20004;-60
2024/04/25 02:16:38;;;;;;;4.53;1.88;;;6.30;81.00;;;;;;5388067;26;20007;-61
2024/04/25 02:19:07;;;;;;;3.90;1.60;;;6.30;80.90;;;;;;5388683;26;20020;-61
2024/04/25 02:27:19;;;;;;;4.22;1.50;;;6.30;81.20;;;;;;5305750;26;20008;-61
2024/04/25 02:29:47;;;;;;;2.97;1.40;;;6.20;81.30;;;;;;5368047;26;20023;-61
2024/04/25 02:32:19;;;;;;;4.20;1.88;;;6.20;81.50;;;;;;5392681;26;20073;-60
2024/04/25 02:34:48;;;;;;;3.42;1.67;;;6.30;81.50;;;;;;5383628;26;20014;-61
2024/04/25 02:37:17;;;;;;;3.42;1.55;;;6.30;81.60;;;;;;5384687;26;20005;-60
2024/04/25 02:39:46;;;;;;;3.95;1.77;;;6.30;81.50;;;;;;5378265;26;20019;-62
2024/04/25 02:42:12;;;;;;;3.53;1.50;;;6.30;81.60;;;;;;5386159;26;20411;-62
2024/04/25 02:44:41;;;;;;;5.22;1.60;;;6.30;81.70;;;;;;5384275;26;20023;-63
2024/04/25 02:47:08;;;;;;;4.85;1.58;;;6.30;81.80;;;;;;5388849;26;20004;-63
2024/04/25 02:49:39;;;;;;;3.88;1.50;;;6.30;81.70;;;;;;5383592;26;20057;-63
2024/04/25 02:52:06;;;;;;;4.55;1.58;;;6.40;81.60;;;;;;5382813;26;20008;-62
2024/04/25 02:54:35;;;;;;;3.35;2.25;;;6.30;81.50;;;;;;5386911;26;20004;-63
2024/04/25 02:57:01;;;;;;;3.03;1.33;;;6.20;81.70;;;;;;5393801;26;20030;-62
2024/04/25 02:59:30;;;;;;;3.90;1.58;;;6.20;81.80;;;;;;5395686;26;20466;-62
2024/04/25 03:01:57;;;;;;;3.15;1.73;;;6.10;81.90;;;;;;5386772;26;20001;-62
2024/04/25 03:04:26;;;;;;;3.30;1.40;;;6.10;81.80;;;;;;5392518;26;20078;-63
2024/04/25 03:06:55;;;;;;;4.13;1.90;;;6.10;81.90;;;;;;5394275;26;20008;-63
2024/04/25 03:09:24;;;;;;;2.85;1.38;;;6.00;82.00;;;;;;5385787;26;20040;-63
2024/04/25 03:11:50;;;;;;;4.38;1.60;;;6.00;82.10;;;;;;5391455;26;20003;-63
2024/04/25 03:14:20;;;;;;;6.05;1.98;;;6.00;82.20;;;;;;5390017;26;20017;-63
2024/04/25 03:16:46;;;;;;;3.97;1.90;;;5.90;82.40;;;;;;5391664;26;20014;-62
2024/04/25 03:19:17;;;;;;;5.38;2.33;;;6.00;82.40;;;;;;5391612;26;20023;-62
2024/04/25 03:21:43;;;;;;;3.40;1.77;;;5.90;82.50;;;;;;5393770;26;20018;-62
2024/04/25 03:24:15;;;;;;;3.95;2.00;;;5.90;82.60;;;;;;5389611;26;20334;-62
2024/04/25 03:26:41;;;;;;;4.13;2.00;;;5.90;82.60;;;;;;5397767;26;20000;-62
2024/04/25 03:29:10;;;;;;;5.50;2.35;;;5.90;82.70;;;;;;5385487;26;20016;-63
2024/04/25 03:31:36;;;;;;;4.28;2.15;;;5.90;82.60;;;;;;5391313;26;20018;-63
2024/04/25 03:34:05;;;;;;;4.95;2.10;;;5.90;82.60;;;;;;5388540;26;20008;-63
2024/04/25 03:36:34;;;;;;;4.78;2.10;;;5.90;82.40;;;;;;5388190;26;20081;-62
2024/04/25 03:39:03;;;;;;;7.38;2.45;;;5.90;82.40;;;;;;5386057;26;20018;-63
2024/04/25 03:41:34;;;;;;;5.63;2.35;;;5.90;82.50;;;;;;5381422;26;20011;-63
2024/04/25 03:44:03;;;;;;;3.80;2.22;;;5.80;82.60;;;;;;5380094;26;20008;-62
2024/04/25 03:46:32;;;;;;;4.72;2.13;;;5.80;82.60;;;;;;5393076;26;20007;-62
2024/04/25 03:49:02;;;;;;;5.43;2.10;;;5.80;82.60;;;;;;5393999;26;20465;-72
2024/04/25 03:51:29;;;;;;;5.80;2.35;;;5.80;82.70;;;;;;5387080;26;20004;-74
2024/04/25 03:53:58;;;;;;;6.18;2.45;;;5.80;82.70;;;;;;5388057;26;20084;-73
2024/04/25 03:56:26;;;;;;;6.97;2.55;;;5.80;82.80;;;;;;5386743;26;20019;-73
2024/04/25 03:58:58;;;;;;;4.47;2.03;;;5.80;82.80;;;;;;5389217;26;20008;-73
2024/04/25 04:01:27;;;;;;;5.30;2.28;;;5.90;82.80;;;;;;5388374;26;20007;-73
2024/04/25 04:03:56;;;;;;;5.93;2.20;;;5.90;82.80;;;;;;5382873;26;20099;-73
2024/04/25 04:06:25;;;;;;;5.65;2.33;;;5.80;82.90;;;;;;5389027;26;20390;-74
2024/04/25 04:08:54;;;;;;;5.65;2.55;;;5.80;83.10;;;;;;5385729;26;20011;-73
2024/04/25 04:11:23;;;;;;;6.00;2.35;;;5.90;83.20;;;;;;5387742;26;20004;-73
2024/04/25 04:13:52;;;;;;;6.45;2.53;;;5.90;83.20;;;;;;5381025;26;20397;-72
2024/04/25 04:16:23;;;;;;;7.25;2.55;;;5.90;83.30;;;;;;5389548;26;20004;-73
2024/04/25 04:18:52;;;;;;;4.78;2.60;;;5.90;83.30;;;;;;5386568;26;20559;-73
2024/04/25 04:21:21;;;;;;;4.80;2.05;;;5.90;83.30;;;;;;5388000;26;20023;-73
2024/04/25 04:23:50;;;;;;;4.90;2.75;;;6.00;83.40;;;;;;5382838;26;20044;-73
2024/04/25 04:26:19;;;;;;;6.35;2.90;;;5.90;83.30;;;;;;5391103;26;20014;-72
2024/04/25 04:28:48;;;;;;;6.03;2.72;;;6.00;83.40;;;;;;5392482;26;20015;-72
2024/04/25 04:31:17;;;;;;;7.28;2.90;;;6.00;83.50;;;;;;5389738;26;20015;-73
2024/04/25 04:33:48;;;;;;;5.07;2.88;;;6.00;83.40;;;;;;5388198;26;20017;-73
2024/04/25 04:36:17;;;;;;;7.55;3.22;;;6.00;83.50;;;;;;5387867;26;20003;-73
2024/04/25 04:38:46;;;;;;;4.82;2.70;;;6.00;83.70;;;;;;5390094;26;20113;-72
2024/04/25 04:41:15;;;;;;;6.15;2.90;;;6.00;83.70;;;;;;5388348;26;20015;-72
2024/04/25 04:43:44;;;;;;;7.28;2.92;;;6.00;83.60;;;;;;5393769;26;20020;-71
2024/04/25 04:46:52;;;;;;;6.30;2.72;;;6.00;83.70;;;;;;5390235;26;20450;-72
2024/04/25 04:49:24;;;;;;;4.68;2.72;;;6.00;83.70;;;;;;5416275;26;20053;-72
2024/04/25 04:51:53;;;;;;;5.47;2.70;;;6.10;83.60;;;;;;5423410;26;20058;-72
2024/04/25 04:54:22;;;;;;;6.32;3.17;;;6.10;83.80;;;;;;5422651;26;20003;-73
2024/04/25 04:56:51;;;;;;;4.80;2.25;;;6.10;83.70;;;;;;5425180;25;20450;-72
2024/04/25 04:59:29;;;;;;;5.72;2.95;;;6.20;83.50;;;;;;5428087;26;20121;-65
2024/04/25 05:01:58;;;;;;;5.95;2.88;;;6.10;83.60;;;;;;5425455;26;20022;-64
2024/04/25 05:04:30;;;;;;;6.45;2.72;;;6.10;83.60;;;;;;5427071;26;20074;-65
2024/04/25 05:06:59;;;;;;;6.55;3.08;;;6.10;83.70;;;;;;5427395;26;20113;-63
2024/04/25 05:09:28;;;;;;;6.00;3.50;;;6.10;83.60;;;;;;5422852;26;20054;-64
2024/04/25 05:11:56;;;;;;;6.07;2.83;;;6.20;83.70;;;;;;5424811;26;20010;-64
2024/04/25 05:14:25;;;;;;;5.97;2.97;;;6.20;83.80;;;;;;5429022;26;19999;-64
2024/04/25 05:16:54;;;;;;;8.35;3.00;;;6.20;84.00;;;;;;5421816;26;20496;-64
2024/04/25 05:19:23;;;;;;;5.70;2.67;;;6.20;84.00;;;;;;5422296;26;20114;-65
2024/04/25 05:21:56;;;;;;;5.45;3.05;;;6.20;84.00;;;;;;5430326;26;20476;-64
2024/04/25 05:24:24;;;;;;;5.13;3.10;;;6.20;84.30;;;;;;5428657;26;20023;-64
2024/04/25 05:26:53;;;;;;;5.25;3.03;;;6.20;84.30;;;;;;5428209;26;20109;-65
2024/04/25 05:29:22;;;;;;;7.15;2.88;;;6.30;84.30;;;;;;5427849;26;20003;-66
2024/04/25 05:31:51;;;;;;;5.32;2.65;;;6.30;84.40;;;;;;5418358;26;20041;-64
2024/04/25 05:34:20;;;;;;;5.22;3.00;;;6.30;84.30;;;;;;5425257;26;20092;-64
2024/04/25 05:36:49;;;;;;;7.88;3.25;;;6.30;84.10;;;;;;5423654;26;20003;-66
2024/04/25 05:39:21;;;;;;;5.90;3.20;;;6.40;83.90;;;;;;5426247;26;20796;-64
2024/04/25 05:41:50;;;;;;;6.80;3.45;;;6.40;83.80;;;;;;5426868;26;20030;-64
2024/04/25 05:44:19;;;;;;;8.38;3.45;;;6.50;83.80;;;;;;5425920;26;20006;-64
2024/04/25 05:46:48;;;;;;;8.25;3.83;;;6.40;83.70;;;;;;5430399;26;20007;-64
2024/04/25 05:49:17;;;;;;;6.95;3.50;;;6.50;83.70;;;;;;5422696;26;20003;-67
2024/04/25 05:51:45;;;;;;;6.63;3.20;;;6.50;83.70;;;;;;5423770;26;20910;-66
2024/04/25 05:54:14;;;;;;;5.57;3.15;;;6.50;83.50;;;;;;5428094;26;20346;-64
2024/04/25 05:56:46;;;;;;;7.38;3.58;;;6.50;83.50;;;;;;5425743;26;20018;-65
2024/04/25 05:59:15;;;;;;;7.43;3.15;;;6.40;83.60;;;;;;5424430;26;20003;-65
2024/04/25 06:01:45;;;;;;;5.85;2.80;;;6.40;83.70;;;;;;5424635;26;20003;-65
2024/04/25 06:04:14;;;;;;;6.70;2.85;;;6.40;83.60;;;;;;5425131;26;20007;-64
2024/04/25 06:06:43;;;;;;;6.35;3.05;;;6.40;83.50;;;;;;5425609;26;20002;-65
2024/04/25 06:09:12;;;;;;;6.63;3.28;;;6.40;83.60;;;;;;5425045;26;20007;-64
2024/04/25 06:11:41;;;;;;;6.15;2.70;;;6.40;83.60;;;;;;5416171;26;20057;-65
2024/04/25 06:14:42;;;;;;;7.75;2.85;;;6.50;83.70;;;;;;5426743;26;20006;-63
2024/04/25 06:17:11;;;;;;;5.95;3.00;;;6.50;83.60;;;;;;5429030;26;20014;-64
2024/04/25 06:19:39;;;;;;;7.25;2.88;;;6.50;83.70;;;;;;5428193;26;20022;-63
2024/04/25 06:22:08;;;;;;;5.40;3.10;;;6.60;83.70;;;;;;5426964;26;22049;-64
2024/04/25 06:24:37;;;;;;;6.32;3.38;;;6.60;83.60;;;;;;5418184;26;19998;-65
2024/04/25 06:27:06;;;;;;;5.40;2.70;;;6.60;83.80;;;;;;5429764;26;20003;-64
2024/04/25 06:29:35;;;;;;;6.35;3.13;;;6.60;83.60;;;;;;5431852;26;20055;-63
2024/04/25 06:32:07;;;;;;;5.45;3.15;;;6.60;83.70;;;;;;5424616;26;20088;-64
2024/04/25 06:34:36;;;;;;;8.43;3.58;;;6.60;83.80;;;;;;5428541;26;20446;-65
2024/04/25 06:37:07;;;;;;;6.03;2.53;;;6.60;83.90;;;;;;5425602;26;20011;-65
2024/04/25 06:39:36;;;;;;;7.90;3.28;;;6.60;83.90;;;;;;5425935;26;20014;-65
2024/04/25 06:42:05;;;;;;;7.65;3.10;;;6.60;83.90;;;;;;5424225;26;20369;-64
2024/04/25 06:44:34;;;;;;;6.57;2.88;;;6.70;83.90;;;;;;5427373;26;20408;-65
2024/04/25 06:47:01;;;;;;;6.63;3.17;;;6.70;84.10;;;;;;5427501;26;20019;-64
2024/04/25 06:49:32;;;;;;;5.80;2.45;;;6.70;84.00;;;;;;5430178;26;20047;-65
2024/04/25 06:52:23;;;;;;;10.60;2.90;;;6.70;84.10;;;;;;5429893;26;20473;-64
2024/04/25 06:55:24;;;;;;;6.82;2.90;;;6.70;84.00;;;;;;5422402;26;20026;-64
2024/04/25 06:57:53;;;;;;;6.82;3.17;;;6.70;84.20;;;;;;5429219;26;20019;-63
2024/04/25 07:00:23;;;;;;;7.30;2.47;;;6.80;84.20;;;;;;5428197;26;20003;-64
2024/04/25 07:02:52;;;;;;;6.03;2.90;;;6.80;84.00;;;;;;5427960;26;20117;-64
2024/04/25 07:05:23;;;;;;;8.77;3.03;;;6.90;83.90;;;;;;5423884;26;20013;-64
2024/04/25 07:07:53;;;;;;;5.70;2.60;;;6.90;83.70;;;;;;5425698;25;20006;-64
2024/04/25 07:10:22;;;;;;;5.20;2.72;;;6.90;83.60;;;;;;5430964;26;20008;-64
2024/04/25 07:12:51;;;;;;;7.90;2.58;;;7.00;83.70;;;;;;5430733;26;20076;-64
2024/04/25 07:15:24;;;;;;;8.15;2.67;;;6.90;83.50;;;;;;5427570;26;20014;-64
2024/04/25 07:17:54;;;;;;;11.05;2.92;;;6.90;83.90;;;;;;5426823;26;20055;-63
2024/04/25 07:20:26;;;;;;;5.65;2.35;;;6.90;83.80;;;;;;5429245;26;20017;-61
2024/04/25 07:22:55;;;;;;;7.55;2.70;;;7.00;83.60;;;;;;5426160;26;20105;-60
2024/04/25 07:25:25;;;;;;;6.70;2.47;;;7.00;83.20;;;;;;5427886;26;20031;-60
2024/04/25 07:27:54;;;;;;;8.65;2.72;;;7.10;83.00;;;;;;5429765;26;20351;-64
2024/04/25 07:30:23;;;;;;;7.22;2.80;;;7.00;83.10;;;;;;5427483;26;20003;-60
2024/04/25 07:32:52;;;;;;;7.00;2.80;;;7.10;83.10;;;;;;5427111;26;20017;-61
2024/04/25 07:35:21;;;;;;;7.78;2.42;;;7.10;82.80;;;;;;5427883;26;20092;-61
2024/04/25 07:37:53;;;;;;;6.95;2.58;;;7.10;83.00;;;;;;5426403;26;20003;-63
2024/04/25 07:40:22;;;;;;;5.13;2.40;;;7.00;82.80;;;;;;5428099;26;20025;-61
2024/04/25 07:42:50;;;;;;;6.55;2.78;;;7.00;82.90;;;;;;5429045;26;20510;-61
2024/04/25 07:45:19;;;;;;;7.32;2.75;;;6.90;82.90;;;;;;5429054;26;20007;-61
2024/04/25 07:47:48;;;;;;;6.72;2.40;;;7.00;82.90;;;;;;5427579;26;20022;-60
2024/04/25 07:50:17;;;;;;;6.53;2.33;;;6.90;82.90;;;;;;5431594;26;20469;-61
2024/04/25 07:52:46;;;;;;;6.80;2.90;;;6.90;82.80;;;;;;5428003;26;20450;-59
2024/04/25 07:55:18;;;;;;;7.40;2.95;;;6.90;83.00;;;;;;5427856;26;20007;-61
2024/04/25 07:57:47;;;;;;;8.65;3.00;;;6.90;82.90;;;;;;5429845;26;20018;-60
2024/04/25 08:00:16;;;;;;;9.02;2.50;;;6.80;83.00;;;;;;5429787;26;20007;-61
2024/04/25 08:02:45;;;;;;;5.60;2.55;;;6.80;83.10;;;;;;5420182;26;20010;-61
2024/04/25 08:05:15;;;;;;;6.80;2.78;;;6.80;83.20;;;;;;5428892;26;20015;-61
2024/04/25 08:07:45;;;;;;;7.70;2.20;;;6.80;83.30;;;;;;5426371;26;20778;-61
2024/04/25 08:10:17;;;;;;;7.45;2.50;;;6.90;83.20;;;;;;5423220;26;20018;-61
2024/04/25 08:12:46;;;;;;;8.20;2.60;;;6.80;83.20;;;;;;5429133;26;20055;-61
2024/04/25 08:15:15;;;;;;;9.48;2.90;;;6.90;83.10;;;;;;5430487;26;20011;-61
2024/04/25 08:17:48;;;;;;;9.35;2.80;;;7.00;83.10;;;;;;5430051;26;20022;-62
2024/04/25 08:20:17;;;;;;;6.90;2.53;;;7.00;83.10;;;;;;5429644;26;20008;-60
2024/04/25 08:22:47;;;;;;;7.05;2.65;;;7.10;82.90;;;;;;5424857;26;20018;-61
2024/04/25 08:25:19;;;;;;;8.07;2.80;;;7.20;82.60;;;;;;5427508;26;20745;-61
2024/04/25 08:27:48;;;;;;;10.27;3.53;;;7.30;82.50;;;;;;5429034;26;20004;-60
2024/04/25 08:30:17;;;;;;;6.88;2.97;;;7.50;82.60;;;;;;5429276;26;20003;-73
2024/04/25 08:32:46;;;;;;;6.10;2.80;;;7.70;82.80;;;;;;5429565;26;20019;-72
2024/04/25 08:35:15;;;;;;;10.18;3.53;;;7.90;82.30;;;;;;5432424;26;20015;-72
2024/04/25 08:37:48;;;;;;;9.10;3.00;;;7.90;82.20;;;;;;5428945;26;20099;-71
2024/04/25 08:40:19;;;;;;;9.15;3.33;;;8.00;82.00;;;;;;5428040;26;20043;-72
2024/04/25 08:42:50;;;;;;;9.75;2.92;;;8.00;81.70;;;;;;5430894;26;20083;-71
2024/04/25 08:45:19;;;;;;;8.77;3.20;;;8.10;81.80;;;;;;5430844;26;20018;-72
2024/04/25 08:47:51;;;;;;;6.75;3.17;;;8.10;81.00;;;;;;5427442;26;19995;-72
2024/04/25 08:50:23;;;;;;;8.48;3.17;;;8.10;81.70;;;;;;5430046;26;20007;-72
2024/04/25 08:52:54;;;;;;;10.43;3.13;;;8.10;81.80;;;;;;5430502;26;20276;-72
2024/04/25 08:55:26;;;;;;;8.32;3.25;;;8.20;81.50;;;;;;5430470;26;20008;-72
2024/04/25 08:57:55;;;;;;;6.68;2.65;;;8.30;81.20;;;;;;5421715;26;20079;-72
2024/04/25 09:00:25;;;;;;;10.73;3.20;;;8.50;81.50;;;;;;5430709;26;20369;-72
2024/04/25 09:02:55;;;;;;;6.82;3.10;;;8.70;80.90;;;;;;5427846;26;20014;-72
2024/04/25 09:05:26;;;;;;;9.13;2.83;;;8.80;80.60;;;;;;5429838;26;20003;-72
2024/04/25 09:07:55;;;;;;;6.97;2.70;;;8.70;80.40;;;;;;5429969;26;20007;-72
2024/04/25 09:10:27;;;;;;;4.70;2.43;;;8.70;80.20;;;;;;5433964;26;20036;-72
2024/04/25 09:12:56;;;;;;;7.97;3.00;;;8.70;79.80;;;;;;5428229;25;20369;-72
2024/04/25 09:15:27;;;;;;;7.22;3.00;;;8.70;79.70;;;;;;5426997;26;20007;-72
2024/04/25 09:18:00;;;;;;;5.60;2.70;;;9.10;79.70;;;;;;5428904;26;20021;-73
2024/04/25 09:20:29;;;;;;;8.15;2.60;;;9.60;78.90;;;;;;5430513;26;20109;-73
2024/04/25 09:22:58;;;;;;;6.68;2.78;;;10.10;78.20;;;;;;5425249;26;20011;-73
2024/04/25 09:25:30;;;;;;;8.75;2.65;;;10.50;77.40;;;;;;5431997;26;20003;-72
2024/04/25 09:28:01;;;;;;;9.35;3.35;;;10.50;76.50;;;;;;5429092;26;20003;-73
2024/04/25 09:30:31;;;;;;;5.43;2.60;;;10.20;76.00;;;;;;5429080;26;20469;-73
2024/04/25 09:32:59;;;;;;;10.70;2.47;;;9.90;76.30;;;;;;5428647;26;20388;-73
2024/04/25 09:35:28;;;;;;;5.75;2.20;;;9.50;75.90;;;;;;5426319;26;20459;-73
2024/04/25 09:37:57;;;;;;;6.75;2.20;;;9.20;76.10;;;;;;5430212;26;20065;-73
2024/04/25 09:40:26;;;;;;;8.68;2.45;;;9.10;76.70;;;;;;5422517;26;20012;-63
2024/04/25 09:42:58;;;;;;;7.28;2.78;;;9.10;76.90;;;;;;5424628;26;20568;-64
2024/04/25 09:45:30;;;;;;;7.47;2.35;;;9.10;76.80;;;;;;5427164;26;20006;-64
2024/04/25 09:48:09;;;;;;;5.82;2.50;;;9.00;76.80;;;;;;5424005;26;20008;-64
2024/04/25 09:50:43;;;;;;;7.47;2.30;;;9.00;76.70;;;;;;5426186;26;20018;-63
2024/04/25 09:53:15;;;;;;;5.25;2.40;;;9.30;76.50;;;;;;5423582;26;20473;-63
2024/04/25 09:55:46;;;;;;;6.30;2.35;;;9.70;76.30;;;;;;5428534;26;20002;-65
2024/04/25 09:58:28;;;;;;;4.22;1.88;;;10.10;75.60;;;;;;5429403;26;20011;-64
2024/04/25 10:00:59;;;;;;;5.10;2.42;;;10.50;74.80;;;;;;5432920;26;20003;-63
2024/04/25 10:03:29;;;;;;;6.63;2.20;;;10.40;74.20;;;;;;5431358;26;20015;-64
2024/04/25 10:05:58;;;;;;;5.15;2.08;;;10.50;73.80;;;;;;5426731;26;20497;-64
2024/04/25 10:08:27;;;;;;;6.30;2.03;;;11.00;73.90;;;;;;5431146;26;20003;-64
2024/04/25 10:10:57;;;;;;;7.50;1.80;;;11.40;73.60;;;;;;5429777;25;20162;-64
2024/04/25 10:13:29;;;;;;;5.40;2.15;;;11.70;72.60;;;;;;5432845;26;20011;-64
2024/04/25 10:16:00;;;;;;;4.85;2.00;;;11.90;71.70;;;;;;5430287;26;20017;-64
2024/04/25 10:18:29;;;;;;;2.63;1.48;;;12.20;70.80;;;;;;5427363;25;20003;-63
2024/04/25 10:21:02;;;;;;;5.35;1.80;;;12.50;70.00;;;;;;5423551;26;20460;-63
2024/04/25 10:23:35;;;;;;;6.43;1.58;;;12.70;68.90;;;;;;5428588;26;20003;-62
2024/04/25 10:26:04;;;;;;;3.95;1.40;;;12.90;68.90;;;;;;5425478;26;20030;-64
2024/04/25 10:28:36;;;;;;;4.03;1.50;;;12.70;67.70;;;;;;5423958;26;19996;-65
2024/04/25 10:31:05;;;;;;;4.13;1.52;;;12.40;67.60;;;;;;5423478;26;20082;-64
2024/04/25 10:33:34;;;;;;;4.22;1.50;;;12.10;67.50;;;;;;5426441;26;20458;-65
2024/04/25 10:36:08;;;;;;;2.83;1.27;;;11.80;67.40;;;;;;5427879;26;20003;-64
2024/04/25 10:38:37;;;;;;;5.40;1.48;;;11.50;67.40;;;;;;5431432;26;20018;-65
2024/04/25 10:41:06;;;;;;;3.20;1.23;;;11.30;68.30;;;;;;5431367;25;20358;-65
2024/04/25 10:43:48;;;;;;;4.90;1.38;;;11.30;68.00;;;;;;5425767;26;20341;-63
2024/04/25 10:46:17;;;;;;;7.95;2.15;;;11.20;68.20;;;;;;5431651;26;20002;-63
2024/04/25 10:48:46;;;;;;;4.30;1.60;;;11.30;68.20;;;;;;5425650;26;20341;-61
2024/04/25 10:51:16;;;;;;;6.60;2.40;;;11.40;67.40;;;;;;5430887;26;20007;-60
2024/04/25 10:53:45;;;;;;;6.78;2.00;;;11.70;65.20;;;;;;5426450;26;20761;-60
2024/04/25 10:56:16;;;;;;;4.72;1.58;;;11.80;65.00;;;;;;5434109;26;20080;-64
2024/04/25 10:58:55;;;;;;;5.03;1.38;;;11.90;64.70;;;;;;5431720;26;20018;-60
2024/04/25 11:01:25;;;;;;;2.67;1.00;;;12.20;64.10;;;;;;5432060;26;20006;-63
2024/04/25 11:03:57;;;;;;;2.75;0.80;;;12.40;63.10;;;;;;5432120;26;20003;-60
2024/04/25 11:06:27;;;;;;;3.50;1.00;;;12.70;63.80;;;;;;5430855;26;19999;-61
2024/04/25 11:08:57;;;;;;;7.65;1.60;;;12.80;62.30;;;;;;5429080;26;20072;-60
2024/04/25 11:11:26;;;;;;;3.00;1.10;;;12.70;61.80;;;;;;5429728;26;19999;-59
2024/04/25 11:13:58;;;;;;;2.37;0.93;;;12.60;62.00;;;;;;5427855;26;20014;-59
2024/04/25 11:16:37;;;;;;;5.35;1.08;;;12.60;61.50;;;;;;5431286;26;20003;-60
2024/04/25 11:19:08;;;;;;;3.42;1.10;;;12.50;61.90;;;;;;5428059;26;20430;-61
2024/04/25 11:21:37;;;;;;;4.05;1.00;;;12.40;62.10;;;;;;5432005;26;20003;-60
2024/04/25 11:24:06;;;;;;;6.88;1.10;;;12.30;62.30;;;;;;5430729;26;20012;-60
2024/04/25 11:26:35;;;;;;;5.35;1.30;;;12.10;61.50;;;;;;5430417;26;20462;-60
2024/04/25 11:29:07;;;;;;;3.15;1.05;;;12.10;61.20;;;;;;5430783;26;20130;-60
2024/04/25 11:31:37;;;;;;;4.85;1.02;;;12.00;61.30;;;;;;5431131;26;20334;-59
2024/04/25 11:34:07;;;;;;;6.47;1.60;;;12.10;61.90;;;;;;5430528;26;20019;-60
2024/04/25 11:36:37;;;;;;;5.68;1.20;;;12.50;61.70;;;;;;5429492;26;20345;-60
2024/04/25 11:39:06;;;;;;;13.40;1.65;;;12.70;60.70;;;;;;5425403;26;20003;-60
2024/04/25 11:41:35;;;;;;;13.07;2.38;;;12.70;60.10;;;;;;5434054;26;20461;-60
2024/04/25 11:44:07;;;;;;;9.32;1.80;;;12.50;59.50;;;;;;5427875;26;20061;-60
2024/04/25 11:46:36;;;;;;;8.18;1.70;;;12.20;59.50;;;;;;5431233;26;20003;-61
2024/04/25 11:49:06;;;;;;;6.55;1.48;;;12.10;59.40;;;;;;5425599;26;20002;-60
2024/04/25 11:51:35;;;;;;;7.28;1.50;;;12.10;59.70;;;;;;5430214;26;20007;-60
2024/04/25 11:54:04;;;;;;;5.07;1.10;;;11.90;59.20;;;;;;5424938;26;20025;-61
2024/04/25 11:56:33;;;;;;;6.87;1.20;;;11.80;59.60;;;;;;5433558;26;20904;-61
2024/04/25 11:59:02;;;;;;;6.03;1.20;;;11.70;58.90;;;;;;5429268;26;20022;-65
2024/04/25 12:01:34;;;;;;;5.32;1.50;;;11.50;58.60;;;;;;5430517;26;20102;-65
2024/04/25 12:04:04;;;;;;;2.92;0.95;;;11.50;59.90;;;;;;5426559;26;20062;-65
2024/04/25 12:06:33;;;;;;;3.22;0.95;;;11.40;62.20;;;;;;5429855;26;20035;-65
2024/04/25 12:09:02;;;;;;;2.33;0.85;;;11.20;63.00;;;;;;5428805;26;21195;-65
2024/04/25 12:11:35;;;;;;;3.75;0.90;;;11.10;63.70;;;;;;5430677;26;20013;-64
2024/04/25 12:14:06;;;;;;;3.90;0.93;;;11.00;64.40;;;;;;5429492;26;20015;-66
2024/04/25 12:16:37;;;;;;;2.38;1.05;;;10.90;65.40;;;;;;5430504;26;20458;-66
2024/04/25 12:19:06;;;;;;;3.33;0.90;;;10.70;66.10;;;;;;5429626;26;20088;-65
2024/04/25 12:21:36;;;;;;;3.95;0.70;;;10.60;66.20;;;;;;5418970;26;20014;-66
2024/04/25 12:24:05;;;;;;;3.95;0.95;;;10.60;66.70;;;;;;5428641;26;20434;-66
2024/04/25 12:26:34;;;;;;;4.72;1.15;;;10.60;67.00;;;;;;5421603;26;20022;-66
2024/04/25 12:29:03;;;;;;;3.67;1.02;;;10.70;67.20;;;;;;5429177;26;20064;-65
2024/04/25 12:31:50;;;;;;;2.70;0.95;;;10.70;67.20;;;;;;5431958;26;20022;-66
2024/04/25 12:34:19;;;;;;;2.40;1.20;;;10.60;67.80;;;;;;5426334;26;20047;-66
2024/04/25 12:36:48;;;;;;;3.75;1.48;;;10.60;68.10;;;;;;5415297;26;20004;-66
2024/04/25 12:39:17;;;;;;;6.72;1.35;;;10.50;68.40;;;;;;5394064;26;20004;-66
2024/04/25 12:41:47;;;;;;;4.65;1.27;;;10.40;68.10;;;;;;5392300;26;20015;-64
2024/04/25 12:44:16;;;;;;;6.65;1.50;;;10.40;68.30;;;;;;5396395;26;20004;-66
2024/04/25 12:46:47;;;;;;;5.97;1.48;;;10.30;68.90;;;;;;5388052;26;20008;-66
2024/04/25 12:49:35;;;;;;;4.95;1.60;;;10.20;69.60;;;;;;5395983;26;20003;-66
2024/04/25 12:52:06;;;;;;;7.47;2.08;;;10.10;70.10;;;;;;5393709;26;20047;-66
2024/04/25 12:54:36;;;;;;;5.22;1.90;;;10.00;70.30;;;;;;5393702;26;20016;-66
2024/04/25 12:57:05;;;;;;;4.32;1.33;;;10.00;69.70;;;;;;5392031;26;20011;-66
2024/04/25 12:59:36;;;;;;;8.35;1.42;;;9.90;69.60;;;;;;5388706;26;20003;-65
2024/04/25 13:02:05;;;;;;;3.90;1.40;;;9.80;69.80;;;;;;5391475;26;20016;-65
2024/04/25 13:04:36;;;;;;;5.10;1.13;;;9.90;69.90;;;;;;5397495;26;20004;-65
2024/04/25 13:07:05;;;;;;;2.72;1.02;;;9.90;70.00;;;;;;5389352;26;20320;-65
2024/04/25 13:09:34;;;;;;;4.75;1.30;;;10.00;70.30;;;;;;5398060;26;20079;-62
2024/04/25 13:12:03;;;;;;;5.55;1.45;;;10.00;71.10;;;;;;5389423;26;20354;-61
2024/04/25 13:14:32;;;;;;;3.75;1.20;;;10.10;71.20;;;;;;5394601;26;20008;-62
2024/04/25 13:17:01;;;;;;;4.10;1.35;;;10.20;71.40;;;;;;5384035;26;20073;-62